メヘラーバード国際空港(テヘラン)の過去48時間の天気

メヘラーバード国際空港(テヘラン) (Tehran-Mehrabad)

現在時刻: 5/26 06:07 +0430 (5/26 01:37 UTC) 以下の時間は現地時間です。

過去48時間のMETAR気象情報
時間 風向 風速(m/s) 視程 気温(℃) 湿度(%) 気圧(hPa) 天気現象
26 05:30 西北西 3 10km以上 16 48 1014
26 05:00 西 3 10km以上 16 48 1014
26 04:30 西北西 3 10km以上 17 45 1014
26 04:00 西北西 3 8000m 17 42 1014
26 03:30 北西 3 8000m 17 45 1013
26 03:00 西北西 4 8000m 17 45 1013
26 02:30 北西 4 8000m 17 45 1013
26 02:00 西北西 4 8000m 18 42 1013
26 01:30 西北西 5 8000m 18 42 1013
26 01:00 西 5 8000m 19 40 1013
26 00:30 西 5 8000m 21 35 1013
26 00:00 北西 2 8000m 25 16 1013
25 23:30 北西 2 8000m 25 16 1013
25 23:00 西 2 8000m 26 14 1013
25 22:30 西北西 3 8000m 26 14 1013
25 22:00 北北西 3 8000m 26 15 1012
25 21:30 北北西 3 8000m 26 14 1012
25 21:00 北北西 3 8000m 26 14 1012
25 20:30 北西 3 8000m 27 13 1012
25 20:00 西北西 5 8000m 27 12 1012
25 19:30 西北西 6 8000m 28 12 1012
25 19:00 北西 6 8000m 28 12 1012
25 18:30 北西 5 8000m 29 10 1012
25 18:00 西北西 7 8000m 29 10 1012
25 17:30 西北西 7 8000m 29 10 1012
25 17:00 西 9 8000m 29 10 1012
25 16:30 西 10 7000m 29 10 1012
25 16:00 西 10 6000m 28 11 1012
25 15:30 西 11 6000m 28 12 1012
25 15:00 西 11 5000m 28 13 1012 風塵
25 14:30 西 11 5000m 28 13 1012 風塵
25 14:00 西 13 5000m 28 13 1012 風塵
25 13:30 西 13 5000m 27 13 1012 風塵
25 13:00 西 13 6000m 26 14 1013
25 12:30 西 11 5000m 27 14 1013 風塵
25 12:00 西 11 4500m 26 15 1013 風塵
25 11:30 西 13 4000m 25 17 1013 風塵
25 11:00 西 11 4000m 25 17 1013 風塵
25 10:30 西 12 4000m 24 18 1013 風塵
25 10:00 西 12 2800m 23 19 1013 風塵
25 09:30 西 11 3500m 23 20 1013 風塵
25 09:00 西 8 3000m 22 22 1014 風塵
25 08:30 西北西 7 3000m 23 16 1013 風塵
25 08:00 西北西 5 2800m 22 20 1013 風塵
25 07:30 西北西 9 3000m 22 19 1013 風塵
25 07:00 西 7 2500m 22 20 1013 風塵
25 06:30 西北西 7 2500m 21 21 1012 風塵
25 06:00 西北西 7 2500m 22 20 1012 風塵
25 05:30 西 6 3500m 22 20 1012 風塵
25 05:00 西北西 8 3500m 23 17 1011 風塵
25 04:30 西北西 7 3500m 23 20 1011 風塵
25 04:00 西北西 6 3500m 23 20 1010 風塵
25 03:30 西 6 3500m 23 20 1010 風塵
25 03:00 西北西 7 3500m 24 19 1010 風塵
25 02:30 西北西 7 3500m 23 19 1010 風塵
25 02:00 西北西 7 3500m 24 18 1010 風塵
25 01:30 西北西 7 3500m 25 17 1010 風塵
25 01:00 西北西 6 4000m 24 18 1010 風塵
25 00:30 西 4 4000m 24 18 1010 風塵
25 00:00 西 4 4000m 25 16 1010 風塵
24 23:30 西北西 3 4000m 26 14 1009 風塵
24 23:00 西北西 3 4000m 26 14 1009 風塵
24 22:30 西北西 4 4000m 26 13 1009 風塵
24 22:00 北西 2 4000m 26 13 1009 風塵
24 21:30 北西 2 3500m 26 13 1008 風塵
24 21:00 2 3500m 26 14 1008 風塵
24 20:30 北北西 3 3500m 27 12 1008 風塵
24 20:00 北西 5 3500m 27 12 1008 風塵
24 19:30 西北西 6 3500m 27 11 1007 風塵
24 19:00 西北西 6 5000m 28 8 1007 風塵
24 18:30 西 8 6000m 28 9 1007
24 18:00 西 5 5000m 29 8 1007 風塵
24 17:30 西 7 4000m 29 7 1007 風塵
24 17:00 西 8 4000m 29 7 1007 風塵
24 16:30 西 9 2200m 29 10 1007 風塵
24 16:00 西 8 1500m 28 10 1007 風塵
24 15:30 西 9 1300m 28 10 1007 風塵
24 14:30 西 11 1300m 27 12 1007 風塵
24 14:00 西 11 1300m 26 14 1007 風塵
24 13:30 西 11 1300m 26 14 1007 風塵
24 13:00 西南西 10 1200m 27 13 1007 風塵
24 12:30 西 11 1000m 25 16 1007 風塵
24 12:00 西 11 1100m 25 13 1007 風塵
24 11:30 西 12 1300m 25 13 1007 風塵
24 11:00 西 11 1300m 24 16 1007 風塵
24 10:30 西 9 1400m 23 17 1007 風塵
24 10:00 西 9 1500m 22 16 1006 風塵
24 09:30 西 8 1500m 22 16 1006 風塵
24 09:00 西 8 1600m 23 14 1006 風塵
24 08:30 西 7 1800m 23 12 1005 風塵
24 08:00 西 9 2200m 22 10 1005 風塵
24 07:30 西 6 3000m 22 10 1005 風塵
24 07:00 西 10 3000m 21 12 1005 風塵
24 06:30 西 8 4000m 21 10 1005 風塵
OIII 260100Z 29006KT CAVOK 16/05 Q1014 A2996 NOSIG
OIII 260030Z 27006KT CAVOK 16/05 Q1014 A2996
OIII 260000Z 29006KT CAVOK 17/05 Q1014 A2996 NOSIG
OIII 252330Z 29006KT 8000 NSC 17/04 Q1014 A2995
OIII 252300Z 32006KT 8000 NSC 17/05 Q1013 A2994 NOSIG
OIII 252230Z 29008KT 8000 NSC 17/05 Q1013 A2994
OIII 252200Z 31008KT 8000 NSC 17/05 Q1013 A2994 NOSIG
OIII 252130Z 30008KT 8000 NSC 18/05 Q1013 A2994
OIII 252100Z 29010KT 8000 NSC 18/05 Q1013 A2994 NOSIG
OIII 252030Z 28010KT 8000 NSC 19/05 Q1013 A2994
OIII 252000Z 27010KT 8000 NSC 21/05 Q1013 A2994 NOSIG
OIII 251930Z 32004KT 8000 NSC 25/M03 Q1013 A2993
OIII 251900Z 32004KT 8000 NSC 25/M03 Q1013 A2993 NOSIG
OIII 251830Z 28004KT 8000 NSC 26/M04 Q1013 A2993
OIII 251800Z 29006KT 8000 NSC 26/M04 Q1013 A2993 NOSIG
OIII 251730Z 33006KT 8000 NSC 26/M03 Q1012 A2991
OIII 251700Z 33006KT 8000 NSC 26/M04 Q1012 A2991 NOSIG
OIII 251630Z 33006KT 8000 NSC 26/M04 Q1012 A2991
OIII 251600Z 31006KT 8000 NSC 27/M04 Q1012 A2991 NOSIG
OIII 251530Z 30010KT 8000 NSC 27/M05 Q1012 A2990
OIII 251500Z 30012KT 8000 NSC 28/M04 Q1012 A2990
OIII 251430Z 32012KT 8000 NSC 28/M04 Q1012 A2989
OIII 251400Z 31010KT 8000 NSC 29/M06 Q1012 A2990 NOSIG
OIII 251330Z 30014KT 8000 NSC 29/M06 Q1012 A2990
OIII 251300Z 29014KT 8000 NSC 29/M06 Q1012 A2990 NOSIG
OIII 251230Z 27018KT 8000 NSC 29/M06 Q1012 A2990
OIII 251200Z 27020KT 7000 NSC 29/M06 Q1012 A2991 NOSIG
OIII 251130Z 27020KT 6000 NSC 28/M05 Q1012 A2991
OIII 251100Z 27022KT 6000 NSC 28/M04 Q1012 A2991 NOSIG
OIII 251030Z 27022KT 5000 DU NSC 28/M03 Q1012 A2991
OIII 251000Z 27022KT 5000 DU NSC 28/M03 Q1012 A2991 NOSIG
OIII 250930Z 27026KT 5000 DU NSC 28/M03 Q1012 A2990
OIII 250900Z 27026KT 5000 DU NSC 27/M04 Q1012 A2991 NOSIG
OIII 250830Z 26026KT 6000 NSC 26/M04 Q1013 A2992
OIII 250800Z 28022KT 5000 DU NSC 27/M03 Q1013 A2992 NOSIG
OIII 250730Z 28022KT 4500 DU NSC 26/M03 Q1013 A2992
OIII 250700Z 26026KT 4000 DU NSC 25/M02 Q1013 A2993 NOSIG
OIII 250630Z 27022KT 4000 DU NSC 25/M02 Q1013 A2993
OIII 250600Z 27024KT 4000 DU NSC 24/M02 Q1013 A2992 NOSIG
OIII 250530Z 27024KT 2800 DU NSC 23/M02 Q1013 A2993
OIII 250500Z 26022KT 3500 DU NSC 23/M01 Q1013 A2994 NOSIG
OIII 250430Z 27016KT 3000 DU NSC 22/M01 Q1014 A2995
OIII 250400Z 29014KT 3000 DU NSC 23/M04 Q1013 A2994 NOSIG
OIII 250330Z 29010KT 2800 DU NSC 22/M02 Q1013 A2994
OIII 250300Z 30018KT 3000 DU NSC 22/M03 Q1013 A2992 NOSIG
OIII 250230Z 28014KT 2500 DU NSC 22/M02 Q1013 A2991
OIII 250200Z 29014KT 2500 DU NSC 21/M02 Q1012 A2990 TEMPO 2000 SA DU
OIII 250130Z 29014KT 2500 DU NSC 22/M02 Q1012 A2989
OIII 250100Z 28012KT 3500 DU NSC 22/M02 Q1012 A2989 NOSIG
OIII 250030Z 29016KT 3500 DU NSC 23/M03 Q1011 A2987
OIII 250000Z 29014KT 3500 DU NSC 23/M01 Q1011 A2986 NOSIG
OIII 242330Z 29012KT 3500 DU NSC 23/M01 Q1010 A2985
OIII 242300Z 28012KT 3500 DU NSC 23/M01 Q1010 A2985 NOSIG
OIII 242230Z 30014KT 3500 DU NSC 24/M01 Q1010 A2984
OIII 242200Z 29014KT 3500 DU NSC 23/M02 Q1010 A2983 NOSIG
OIII 242130Z 30014KT 3500 DU NSC 24/M02 Q1010 A2983
OIII 242100Z 30014KT 3500 DU NSC 25/M02 Q1010 A2983
OIII 242030Z 29012KT 4000 DU NSC 24/M02 Q1010 A2983
OIII 242000Z 28008KT 4000 DU NSC 24/M02 Q1010 A2983 NOSIG
OIII 241930Z 27008KT 4000 DU NSC 25/M03 Q1010 A2983
OIII 241900Z 30006KT 4000 DU NSC 26/M04 Q1009 A2982 NOSIG
OIII 241830Z 29006KT 4000 DU NSC 26/M04 Q1009 A2982
OIII 241800Z 29008KT 4000 DU NSC 26/M05 Q1009 A2980 NOSIG
OIII 241730Z 32004KT 4000 DU NSC 26/M05 Q1009 A2980
OIII 241700Z 32004KT 3500 DU NSC 26/M05 Q1008 A2979 NOSIG
OIII 241630Z 35004KT 3500 DU NSC 26/M04 Q1008 A2978
OIII 241600Z 33006KT 3500 DU NSC 27/M05 Q1008 A2977 NOSIG
OIII 241530Z 31010KT 3500 DU NSC 27/M05 Q1008 A2977
OIII 241500Z 29012KT 3500 DU NSC 27/M06 Q1007 A2976 NOSIG
OIII 241430Z 29012KT 5000 DU NSC 28/M09 Q1007 A2975
OIII 241400Z 27016KT 6000 NSC 28/M08 Q1007 A2974 NOSIG
OIII 241330Z 28010KT 5000 DU NSC 29/M09 Q1007 A2974
OIII 241300Z 27014KT 4000 DU NSC 29/M11 Q1007 A2974 NOSIG
OIII 241230Z 28016KT 4000 DU NSC 29/M10 Q1007 A2974
OIII 241200Z 27018KT 2200 DU NSC 29/M06 Q1007 A2974 NOSIG
OIII 241130Z 28016KT 1500 DU NSC 28/M06 Q1007 A2974
OIII 241100Z 27018KT 1300 R29/P2000 DU NSC 28/M06 Q1007 A2974 NOSIG
OIII 241000Z 26022KT 1300 R29/P2000 DU NSC 27/M05 Q1007 A2975 NOSIG
OIII 240930Z 26022KT 1300 R29/P2000 DU NSC 26/M04 Q1007 A2975
OIII 240900Z 26022KT 1300 R29/P2000 DU NSC 26/M04 Q1007 A2975 NOSIG
OIII 240830Z 25020KT 1200 R29/P2000 DU NSC 27/M04 Q1007 A2975
OIII 240800Z 27022KT 1000 R29/P2000 DU NSC 25/M03 Q1007 A2976 TEMPO 0600 DU
OIII 240730Z 26022KT 1100 R29/P2000 DU NSC 25/M05 Q1007 A2975
OIII 240700Z 27024KT 1300 R29/P2000 DU NSC 25/M05 Q1007 A2975 TEMPO 0800 DU
OIII 240630Z 27022KT 1300 R29/P2000 DU NSC 24/M03 Q1007 A2975
OIII 240600Z 28018KT 1400 R29/P2000 DU NSC 23/M03 Q1007 A2975 TEMPO 0800 DU
OIII 240530Z 27018KT 1500 DU NSC 22/M05 Q1006 A2973
OIII 240500Z 28016KT 1500 DU NSC 22/M05 Q1006 A2973 TEMPO 1000 DU
OIII 240430Z 27016KT 1600 DU NSC 23/M06 Q1006 A2972
OIII 240400Z 27014KT 1800 DU NSC 23/M08 Q1005 A2970 TEMPO 1000 DU
OIII 240330Z 27018KT 2200 DU NSC 22/M11 Q1005 A2970
OIII 240300Z 28012KT 3000 DU NSC 22/M11 Q1005 A2970 TEMPO 1500 DU
OIII 240230Z 27020KT 3000 DU FEW040 21/M10 Q1005 A2970
OIII 240200Z 27016KT 4000 DU FEW040 21/M12 Q1005 A2969 TEMPO 2000 DU